Time;durP1;ratioP1;P1;durP2;ratioP2;P2;SDS_P1;SDS_P2;PMS_P1;PMS_P2;Temp;Humidity;BMP_temperature;BMP_pressure;BME280_temperature;BME280_humidity;BME280_pressure;Samples;Min_cycle;Max_cycle;Signal;HPM_P1;HPM_P2
2021/12/29 00:02:15;;;;;;;5.60;0.90;;;;;;;8.71;88.92;97430.97;5047019;28;20025;-72
2021/12/29 00:04:41;;;;;;;8.60;1.27;;;;;;;8.65;89.59;97431.06;5037150;28;20067;-72
2021/12/29 00:07:07;;;;;;;9.23;1.20;;;;;;;8.58;89.50;97441.09;5037447;28;20064;-73
2021/12/29 00:09:36;;;;;;;14.02;2.08;;;;;;;8.59;90.25;97443.56;5054350;28;20043;-73
2021/12/29 00:12:02;;;;;;;6.40;1.20;;;;;;;8.61;90.57;97451.44;5035177;28;20028;-73
2021/12/29 00:14:27;;;;;;;7.10;1.20;;;;;;;8.52;90.96;97434.75;5050303;28;20078;-73
2021/12/29 00:16:56;;;;;;;8.07;1.33;;;;;;;8.62;90.34;97439.59;5046429;28;20545;-73
2021/12/29 00:19:21;;;;;;;11.73;1.38;;;;;;;8.58;91.44;97450.00;5046312;28;21945;-73
2021/12/29 00:21:46;;;;;;;6.50;1.23;;;;;;;8.58;91.39;97462.66;5050905;28;20036;-73
2021/12/29 00:24:11;;;;;;;11.60;1.60;;;;;;;8.60;91.29;97456.00;5051188;28;20033;-73
2021/12/29 00:26:37;;;;;;;8.50;1.35;;;;;;;8.61;91.50;97459.50;5048468;28;20037;-73
2021/12/29 00:29:02;;;;;;;9.07;1.60;;;;;;;8.51;91.17;97468.97;5026523;28;20047;-72
2021/12/29 00:31:32;;;;;;;5.90;1.00;;;;;;;8.59;90.95;97472.38;5052182;28;20393;-73
2021/12/29 00:33:58;;;;;;;10.48;1.10;;;;;;;8.63;90.77;97493.28;5051641;28;20032;-72
2021/12/29 00:36:24;;;;;;;9.27;1.45;;;;;;;8.64;90.61;97494.94;5057991;28;20021;-73
2021/12/29 00:38:49;;;;;;;6.55;1.13;;;;;;;8.64;90.19;97475.25;5055804;28;20017;-73
2021/12/29 00:41:17;;;;;;;10.82;1.30;;;;;;;8.65;90.12;97485.00;5046430;28;20028;-72
2021/12/29 00:43:44;;;;;;;6.07;0.93;;;;;;;8.67;89.60;97499.06;5047701;28;20033;-73
2021/12/29 00:46:12;;;;;;;9.35;1.10;;;;;;;8.65;89.55;97490.38;5055764;28;20021;-73
2021/12/29 00:48:40;;;;;;;5.85;1.13;;;;;;;8.67;89.91;97520.63;5060269;28;20025;-73
2021/12/29 00:51:06;;;;;;;9.05;1.45;;;;;;;8.67;90.20;97526.88;5072028;28;20017;-71
2021/12/29 00:53:32;;;;;;;6.57;1.27;;;;;;;8.62;91.00;97518.63;5067084;28;20017;-73
2021/12/29 00:55:58;;;;;;;8.98;1.33;;;;;;;8.65;90.37;97523.56;5067897;28;20033;-72
2021/12/29 00:58:23;;;;;;;6.93;0.82;;;;;;;8.66;90.24;97521.69;5074615;28;20074;-72
2021/12/29 01:00:49;;;;;;;10.63;1.45;;;;;;;8.68;90.43;97525.81;5073603;28;20036;-73
2021/12/29 01:03:15;;;;;;;10.55;1.40;;;;;;;8.60;90.70;97525.28;5081687;28;20096;-73
2021/12/29 01:05:41;;;;;;;4.30;1.17;;;;;;;8.56;91.21;97541.88;5063324;28;20032;-72
2021/12/29 01:08:08;;;;;;;6.93;0.75;;;;;;;8.56;91.29;97525.69;5049803;28;20033;-72
2021/12/29 01:10:35;;;;;;;7.35;0.90;;;;;;;8.58;91.61;97532.75;5042907;28;20029;-72
2021/12/29 01:13:02;;;;;;;11.93;1.02;;;;;;;8.53;91.79;97558.50;5049560;28;20417;-72
2021/12/29 01:15:47;;;;;;;5.75;1.13;;;;;;;8.49;91.91;97551.91;5051537;28;20020;-73
2021/12/29 01:18:12;;;;;;;6.32;1.45;;;;;;;8.44;92.09;97553.63;5034150;28;20051;-72
2021/12/29 01:20:38;;;;;;;7.45;1.05;;;;;;;8.46;92.73;97564.97;5036882;28;20693;-73
2021/12/29 01:23:03;;;;;;;3.95;0.70;;;;;;;8.46;93.06;97587.41;5051629;28;20028;-72
2021/12/29 01:25:29;;;;;;;5.28;1.10;;;;;;;8.45;92.78;97582.22;5048247;28;20024;-73
2021/12/29 01:27:54;;;;;;;5.18;0.90;;;;;;;8.45;92.59;97582.22;5035469;28;20029;-73
2021/12/29 01:30:19;;;;;;;8.93;0.90;;;;;;;8.47;92.64;97599.00;5051612;28;20017;-72
2021/12/29 01:32:45;;;;;;;10.38;2.15;;;;;;;8.43;92.86;97597.78;5051023;28;20032;-73
2021/12/29 01:35:12;;;;;;;6.03;1.20;;;;;;;8.49;91.98;97599.59;5054999;28;20053;-73
2021/12/29 01:37:38;;;;;;;4.47;0.80;;;;;;;8.40;92.39;97582.88;5052351;28;20040;-72
2021/12/29 01:40:07;;;;;;;5.82;1.30;;;;;;;8.49;91.88;97603.13;5051557;28;20398;-72
2021/12/29 01:42:33;;;;;;;4.30;0.70;;;;;;;8.50;92.03;97596.69;5046021;28;20024;-73
2021/12/29 01:45:00;;;;;;;5.47;0.95;;;;;;;8.52;91.29;97610.75;5053507;28;20096;-73
2021/12/29 01:47:28;;;;;;;7.15;1.02;;;;;;;8.55;91.11;97617.59;5054065;28;20028;-72
2021/12/29 01:49:54;;;;;;;5.65;1.02;;;;;;;8.49;91.88;97627.38;5049386;28;20103;-73
2021/12/29 01:52:24;;;;;;;6.80;0.90;;;;;;;8.48;91.11;97623.03;5049887;28;20021;-73
2021/12/29 01:54:50;;;;;;;6.13;0.68;;;;;;;8.48;90.60;97612.25;5056465;28;20029;-72
2021/12/29 01:57:15;;;;;;;5.30;0.95;;;;;;;8.48;90.79;97641.06;5054180;28;20064;-73
2021/12/29 01:59:41;;;;;;;7.70;0.70;;;;;;;8.48;90.87;97655.38;5051162;28;20021;-73
2021/12/29 02:02:07;;;;;;;5.03;1.00;;;;;;;8.47;91.88;97653.72;5049724;28;20028;-73
2021/12/29 02:04:33;;;;;;;9.75;1.02;;;;;;;8.52;90.33;97664.69;5054796;28;20132;-73
2021/12/29 02:06:59;;;;;;;6.53;1.08;;;;;;;8.49;90.80;97667.81;5044219;28;20119;-72
2021/12/29 02:09:25;;;;;;;4.53;0.95;;;;;;;8.47;90.77;97661.81;5047966;28;20043;-72
2021/12/29 02:11:51;;;;;;;2.85;0.75;;;;;;;8.52;90.23;97659.28;5049690;28;20032;-73
2021/12/29 02:14:16;;;;;;;7.72;0.88;;;;;;;8.52;90.63;97664.69;5041060;28;20028;-73
2021/12/29 02:16:42;;;;;;;5.10;0.90;;;;;;;8.43;90.84;97665.16;5036753;28;20446;-72
2021/12/29 02:19:11;;;;;;;2.85;0.80;;;;;;;8.46;92.10;97681.72;5048953;28;20225;-72
2021/12/29 02:21:38;;;;;;;4.18;0.77;;;;;;;8.44;91.75;97694.59;5062538;28;20029;-73
2021/12/29 02:26:34;;;;;;;5.28;0.70;;;;;;;8.44;91.39;97705.38;5048470;28;20043;-72
2021/12/29 02:29:01;;;;;;;4.05;0.60;;;;;;;8.45;91.19;97707.00;5061955;28;20466;-72
2021/12/29 02:31:28;;;;;;;2.58;0.90;;;;;;;8.40;90.77;97708.72;5054010;28;20057;-72
2021/12/29 02:33:54;;;;;;;3.00;0.50;;;;;;;8.46;91.57;97722.16;5045720;28;20039;-72
2021/12/29 02:36:21;;;;;;;9.45;0.73;;;;;;;8.40;91.89;97722.19;5040263;28;20037;-73
2021/12/29 02:38:52;;;;;;;3.53;1.00;;;;;;;8.45;91.32;97722.38;5065147;28;20086;-73
2021/12/29 02:41:17;;;;;;;6.72;0.80;;;;;;;8.43;91.20;97724.44;5058188;28;20053;-72
2021/12/29 02:43:44;;;;;;;4.82;0.70;;;;;;;8.45;91.11;97747.44;5040152;28;20114;-72
2021/12/29 02:46:12;;;;;;;6.32;0.80;;;;;;;8.40;91.07;97739.19;5054658;28;20026;-71
2021/12/29 02:48:43;;;;;;;1.88;0.68;;;;;;;8.47;91.10;97758.84;5058768;28;20025;-72
2021/12/29 02:51:08;;;;;;;6.40;0.70;;;;;;;8.33;91.71;97752.69;5045042;28;20025;-73
2021/12/29 02:53:35;;;;;;;3.95;0.50;;;;;;;8.35;91.98;97747.88;5030360;28;20498;-73
2021/12/29 02:56:01;;;;;;;2.30;0.40;;;;;;;8.41;92.08;97758.88;5040048;28;20061;-72
2021/12/29 02:58:26;;;;;;;3.85;0.73;;;;;;;8.41;92.06;97765.13;5065052;28;20083;-72
2021/12/29 03:00:54;;;;;;;3.92;0.73;;;;;;;8.43;92.03;97770.28;5072235;28;20024;-72
2021/12/29 03:03:23;;;;;;;5.57;0.88;;;;;;;8.41;92.08;97775.91;5027777;28;20025;-73
2021/12/29 03:05:49;;;;;;;;;;;;;;;8.43;92.18;97778.34;5041060;28;20036;-72
2021/12/29 03:08:16;;;;;;;4.60;0.55;;;;;;;8.33;91.66;97778.78;5051352;28;19912;-73
2021/12/29 03:10:42;;;;;;;4.45;0.70;;;;;;;8.46;92.35;97810.25;5053345;28;20116;-72
2021/12/29 03:13:08;;;;;;;4.72;0.70;;;;;;;8.45;92.57;97814.84;5047419;28;20041;-73
2021/12/29 03:15:35;;;;;;;10.23;1.35;;;;;;;8.29;92.58;97789.16;5046077;28;20516;-72
2021/12/29 03:18:00;;;;;;;8.63;1.25;;;;;;;8.43;92.54;97800.75;5056453;28;20036;-73
2021/12/29 03:20:26;;;;;;;4.63;0.60;;;;;;;8.47;92.16;97801.97;5056744;28;20035;-73
2021/12/29 03:22:54;;;;;;;3.53;0.70;;;;;;;8.39;92.48;97779.81;5054933;28;20029;-73
2021/12/29 03:25:19;;;;;;;4.05;0.70;;;;;;;8.38;92.56;97784.34;5053180;28;20132;-72
2021/12/29 03:27:44;;;;;;;3.95;0.70;;;;;;;8.41;93.08;97793.91;5069576;28;20058;-72
2021/12/29 03:30:10;;;;;;;1.90;0.70;;;;;;;8.33;93.61;97778.78;5056955;28;20021;-72
2021/12/29 03:32:42;;;;;;;4.35;0.70;;;;;;;8.36;93.44;97789.16;5058130;28;20483;-73
2021/12/29 03:35:09;;;;;;;5.68;0.70;;;;;;;8.37;93.52;97803.44;5033149;28;20025;-72
2021/12/29 03:37:36;;;;;;;6.57;0.80;;;;;;;8.36;94.05;97810.72;5046128;28;20037;-72
2021/12/29 03:40:03;;;;;;;4.45;0.77;;;;;;;8.31;94.88;97810.53;5034124;28;20032;-72
2021/12/29 03:42:28;;;;;;;3.75;0.50;;;;;;;8.27;95.29;97826.28;5060029;28;20040;-72
2021/12/29 03:44:54;;;;;;;4.55;0.90;;;;;;;8.26;95.59;97815.72;5034150;28;20037;-73
2021/12/29 03:47:19;;;;;;;1.73;0.60;;;;;;;8.20;96.44;97813.84;5035576;28;20025;-72
2021/12/29 03:49:44;;;;;;;3.15;0.60;;;;;;;8.17;96.74;97812.41;5052397;28;20393;-72
2021/12/29 03:52:10;;;;;;;7.70;0.60;;;;;;;8.18;97.16;97807.88;5067932;28;20518;-72
2021/12/29 03:54:35;;;;;;;2.40;0.40;;;;;;;8.16;97.05;97813.47;5054851;28;20029;-72
2021/12/29 03:57:02;;;;;;;4.68;0.40;;;;;;;8.15;97.31;97814.50;5051053;28;20033;-71
2021/12/29 03:59:29;;;;;;;4.10;0.85;;;;;;;8.15;97.48;97813.66;5046191;28;20027;-72
2021/12/29 04:01:54;;;;;;;3.83;0.63;;;;;;;8.01;97.68;97792.16;5065147;28;20032;-73
2021/12/29 04:04:21;;;;;;;2.65;0.60;;;;;;;7.94;97.93;97796.75;5047974;28;20510;-73
2021/12/29 04:06:46;;;;;;;2.45;0.50;;;;;;;8.10;97.09;97815.16;5042944;28;20033;-72
2021/12/29 04:09:14;;;;;;;4.88;0.40;;;;;;;8.07;97.64;97823.66;5044716;28;20092;-73
2021/12/29 04:11:39;;;;;;;5.55;0.70;;;;;;;8.12;96.84;97823.84;5067637;28;20506;-73
2021/12/29 04:14:04;;;;;;;3.95;0.60;;;;;;;8.13;96.41;97836.28;5055632;28;20036;-73
2021/12/29 04:16:30;;;;;;;3.58;0.43;;;;;;;8.16;95.09;97837.72;5042309;28;20053;-73
2021/12/29 04:19:29;;;;;;;2.28;0.65;;;;;;;8.22;95.67;97854.91;5033838;28;20034;-72
2021/12/29 04:21:47;;;;;;;2.38;0.70;;;;;;;8.17;95.61;97871.69;5056916;28;20052;-72
2021/12/29 04:24:13;;;;;;;5.25;0.88;;;;;;;8.15;95.42;97865.72;5053027;28;20047;-73
2021/12/29 04:26:39;;;;;;;2.67;0.40;;;;;;;8.21;94.98;97877.50;5060055;28;20059;-73
2021/12/29 04:29:05;;;;;;;3.58;0.57;;;;;;;8.10;95.32;97858.25;5050276;28;20013;-72
2021/12/29 04:31:31;;;;;;;2.03;0.32;;;;;;;8.17;95.43;97870.88;5061414;28;20092;-72
2021/12/29 04:33:56;;;;;;;10.88;1.35;;;;;;;8.17;95.95;97873.56;5039972;28;20127;-72
2021/12/29 04:36:24;;;;;;;1.75;0.50;;;;;;;8.08;96.02;97873.78;5073177;28;20035;-73
2021/12/29 04:38:51;;;;;;;2.60;0.65;;;;;;;8.11;94.70;97876.06;5040390;28;20037;-73
2021/12/29 04:41:16;;;;;;;3.38;0.55;;;;;;;8.13;95.18;97874.00;5054402;28;20025;-71
2021/12/29 04:43:42;;;;;;;3.75;0.65;;;;;;;8.13;95.67;97875.84;5032991;28;20403;-73
2021/12/29 04:46:09;;;;;;;2.22;0.38;;;;;;;8.08;95.82;97879.19;5054696;28;20033;-73
2021/12/29 04:48:38;;;;;;;2.03;0.35;;;;;;;8.11;95.67;97880.63;5055825;28;20056;-72
2021/12/29 04:51:06;;;;;;;;;;;;;;;8.09;95.23;97888.09;5065395;28;20032;-73
2021/12/29 04:53:33;;;;;;;3.92;0.52;;;;;;;8.11;94.84;97904.88;5044179;28;19958;-73
2021/12/29 04:55:58;;;;;;;1.55;0.47;;;;;;;8.15;94.21;97910.66;5044907;28;20636;-72
2021/12/29 04:58:24;;;;;;;4.80;0.40;;;;;;;8.15;94.58;97916.03;5054248;28;20047;-73
2021/12/29 05:00:50;;;;;;;1.65;0.47;;;;;;;8.08;94.70;97908.00;5060818;28;20028;-72
2021/12/29 05:03:16;;;;;;;2.08;0.40;;;;;;;8.07;94.75;97899.09;5067189;28;20497;-72
2021/12/29 05:08:27;;;;;;;0.98;0.40;;;;;;;8.19;93.88;97917.28;5050860;28;20039;-70
2021/12/29 05:11:01;;;;;;;1.95;0.30;;;;;;;8.16;94.16;97933.88;5049382;28;20124;-72
2021/12/29 05:13:29;;;;;;;2.20;0.40;;;;;;;8.13;93.83;97938.66;5032828;28;20735;-72
2021/12/29 05:15:57;;;;;;;1.73;0.45;;;;;;;8.16;92.98;97923.94;5037991;28;20056;-71
2021/12/29 05:18:24;;;;;;;3.90;0.30;;;;;;;8.20;93.08;97930.56;5054333;28;20135;-72
2021/12/29 05:20:50;;;;;;;2.00;0.32;;;;;;;8.21;92.75;97931.41;5055449;28;20033;-71
2021/12/29 05:23:15;;;;;;;0.95;0.30;;;;;;;8.18;92.45;97934.50;5046742;28;20494;-71
2021/12/29 05:25:41;;;;;;;4.47;0.50;;;;;;;8.20;92.34;97929.72;5051224;28;20031;-71
2021/12/29 05:28:06;;;;;;;4.60;0.50;;;;;;;8.25;91.60;97946.09;5047569;28;20028;-71
2021/12/29 05:30:32;;;;;;;1.45;0.28;;;;;;;8.23;91.88;97951.69;5065287;28;20113;-73
2021/12/29 05:32:58;;;;;;;2.35;0.20;;;;;;;8.21;92.35;97961.84;5054891;28;20386;-73
2021/12/29 05:35:23;;;;;;;2.58;0.50;;;;;;;8.08;92.41;97957.31;5050513;28;20033;-74
2021/12/29 05:37:48;;;;;;;4.55;0.40;;;;;;;8.17;92.90;97957.09;5057110;28;20083;-74
2021/12/29 05:40:15;;;;;;;2.95;0.30;;;;;;;8.17;93.39;97970.56;5035382;28;20029;-75
2021/12/29 05:42:41;;;;;;;1.80;0.32;;;;;;;8.07;93.56;97949.44;5051620;28;20033;-75
2021/12/29 05:45:09;;;;;;;1.73;0.30;;;;;;;8.16;94.17;97972.44;5050153;28;20029;-74
2021/12/29 05:47:35;;;;;;;0.90;0.30;;;;;;;8.16;94.16;97972.44;5116439;22;20103;-72
2021/12/29 05:50:03;;;;;;;4.03;0.52;;;;;;;8.12;94.75;97977.41;5053833;28;20083;-71
2021/12/29 05:52:28;;;;;;;4.88;0.30;;;;;;;8.13;94.66;97978.22;5035449;28;20016;-69
2021/12/29 05:54:54;;;;;;;2.20;0.50;;;;;;;8.09;95.29;97979.69;5065207;28;20040;-76
2021/12/29 05:57:20;;;;;;;2.42;0.50;;;;;;;7.87;95.75;97958.34;5045807;28;20079;-73
2021/12/29 05:59:45;;;;;;;2.50;0.40;;;;;;;7.92;95.96;97973.06;5053967;28;20021;-73
2021/12/29 06:02:10;;;;;;;1.13;0.40;;;;;;;7.87;96.03;97961.03;5051102;28;20025;-74
2021/12/29 06:04:36;;;;;;;1.20;0.47;;;;;;;8.02;96.55;97997.72;5047991;28;20113;-72
2021/12/29 06:07:01;;;;;;;1.05;0.55;;;;;;;7.77;97.45;97966.00;5074020;28;20024;-72
2021/12/29 06:09:26;;;;;;;1.90;0.40;;;;;;;7.77;97.94;97967.88;5047115;28;20112;-73
2021/12/29 06:11:52;;;;;;;1.77;0.32;;;;;;;7.88;98.61;97995.00;5043944;28;20032;-73
2021/12/29 06:14:17;;;;;;;1.60;0.20;;;;;;;7.61;98.94;97937.59;5027364;28;20482;-74
2021/12/29 06:16:42;;;;;;;1.83;0.32;;;;;;;7.99;99.46;98004.34;5051074;28;20078;-73
2021/12/29 06:19:08;;;;;;;2.08;0.32;;;;;;;7.94;99.88;97997.91;5040753;28;20029;-74
2021/12/29 06:21:33;;;;;;;2.25;0.30;;;;;;;7.86;100.00;97982.81;5049676;28;20063;-74
2021/12/29 06:23:58;;;;;;;5.80;1.13;;;;;;;7.90;100.00;97994.81;5035786;28;20032;-73
2021/12/29 06:26:24;;;;;;;3.97;0.50;;;;;;;7.86;100.00;97988.19;5032891;28;20475;-74
2021/12/29 06:28:49;;;;;;;0.65;0.35;;;;;;;7.77;100.00;97989.41;5053642;28;20032;-74
2021/12/29 06:31:15;;;;;;;5.15;0.65;;;;;;;7.77;100.00;97995.63;5044285;28;20064;-69
2021/12/29 06:33:40;;;;;;;2.28;0.45;;;;;;;7.69;100.00;97995.81;5048810;28;20029;-70
2021/12/29 06:36:06;;;;;;;2.15;0.60;;;;;;;7.62;100.00;97995.81;5064387;28;20027;-70
2021/12/29 06:38:33;;;;;;;1.75;0.40;;;;;;;7.59;100.00;98001.59;5056142;28;20029;-71
2021/12/29 06:40:58;;;;;;;2.55;0.38;;;;;;;7.56;100.00;98002.00;5054708;28;20075;-69
2021/12/29 06:43:24;;;;;;;1.83;0.40;;;;;;;7.55;100.00;97997.66;5060562;28;20029;-69
2021/12/29 06:45:49;;;;;;;2.30;0.40;;;;;;;7.48;100.00;98010.25;5055102;28;20087;-68
2021/12/29 06:48:14;;;;;;;1.92;0.40;;;;;;;7.47;100.00;98014.81;5069342;28;20115;-69
2021/12/29 06:50:39;;;;;;;2.05;0.45;;;;;;;7.47;100.00;98017.50;5047661;28;20028;-70
2021/12/29 06:53:05;;;;;;;3.20;0.40;;;;;;;7.45;100.00;98021.44;5051745;28;20060;-69
2021/12/29 06:55:30;;;;;;;1.30;0.52;;;;;;;7.43;100.00;98031.56;5054770;28;20020;-69
2021/12/29 06:57:56;;;;;;;3.45;0.30;;;;;;;7.39;100.00;98041.91;5054884;28;20478;-72
2021/12/29 07:00:21;;;;;;;6.05;0.32;;;;;;;7.38;100.00;98032.16;5060976;28;20032;-70
2021/12/29 07:02:46;;;;;;;1.77;0.50;;;;;;;7.35;100.00;98046.03;5045148;28;20037;-71
2021/12/29 07:05:12;;;;;;;3.15;1.30;;;;;;;7.33;100.00;98044.56;5055276;28;20103;-68
2021/12/29 07:07:38;;;;;;;2.15;0.70;;;;;;;7.26;100.00;98071.47;5065872;28;20090;-69
2021/12/29 07:10:04;;;;;;;1.35;0.60;;;;;;;7.20;100.00;98059.66;5052275;28;20017;-70
2021/12/29 07:12:30;;;;;;;3.88;0.50;;;;;;;7.07;100.00;98058.72;5058127;28;20037;-69
2021/12/29 07:14:55;;;;;;;4.63;0.90;;;;;;;7.17;100.00;98076.16;5052470;28;20028;-71
2021/12/29 07:17:21;;;;;;;5.07;0.70;;;;;;;7.13;100.00;98080.31;5034379;28;20397;-72
2021/12/29 07:19:46;;;;;;;4.43;0.90;;;;;;;6.97;100.00;98061.81;5028690;28;20132;-75
2021/12/29 07:22:11;;;;;;;5.80;1.05;;;;;;;6.89;100.00;98045.81;5043911;28;20029;-73
2021/12/29 07:24:37;;;;;;;4.40;1.00;;;;;;;7.01;100.00;98066.56;5050624;28;20126;-71
2021/12/29 07:27:03;;;;;;;7.60;1.38;;;;;;;7.03;100.00;98069.91;5037172;28;20420;-75
2021/12/29 07:29:29;;;;;;;10.13;1.30;;;;;;;7.05;100.00;98072.41;5049828;28;20028;-75
2021/12/29 07:31:57;;;;;;;8.95;1.33;;;;;;;6.83;100.00;98041.22;5046909;28;20044;-76
2021/12/29 07:34:24;;;;;;;9.02;1.52;;;;;;;7.09;100.00;98091.66;5058521;28;20023;-69
2021/12/29 07:36:50;;;;;;;3.72;1.40;;;;;;;7.15;100.00;98098.91;5033613;28;20021;-69
2021/12/29 07:39:15;;;;;;;8.82;1.58;;;;;;;7.15;100.00;98104.28;5048942;28;20032;-69
2021/12/29 07:41:41;;;;;;;6.65;1.60;;;;;;;6.99;100.00;98070.47;5047254;28;20017;-69
2021/12/29 07:44:08;;;;;;;15.00;2.00;;;;;;;7.19;100.00;98114.47;5034582;28;20464;-70
2021/12/29 07:46:34;;;;;;;9.18;1.65;;;;;;;7.12;100.00;98102.00;5050484;28;20037;-70
2021/12/29 07:49:03;;;;;;;8.77;1.90;;;;;;;7.18;100.00;98123.56;5035888;28;20024;-69
2021/12/29 07:51:28;;;;;;;;;;;;;;;7.16;100.00;98130.19;5058397;28;20059;-70
2021/12/29 07:53:54;;;;;;;10.23;2.50;;;;;;;7.10;100.00;98123.75;5060064;28;20344;-69
2021/12/29 07:56:19;;;;;;;8.93;1.80;;;;;;;7.04;100.00;98124.50;5044440;28;20378;-70
2021/12/29 07:58:44;;;;;;;7.03;1.23;;;;;;;7.13;100.00;98139.47;5050995;28;20052;-70
2021/12/29 08:01:10;;;;;;;3.15;0.85;;;;;;;7.05;100.00;98128.03;5047564;28;20061;-73
2021/12/29 08:03:35;;;;;;;3.92;0.85;;;;;;;7.05;100.00;98125.34;5048625;28;20047;-73
2021/12/29 08:06:01;;;;;;;8.65;1.00;;;;;;;7.19;100.00;98146.75;5031917;28;20363;-73
2021/12/29 08:08:26;;;;;;;4.93;0.70;;;;;;;7.22;100.00;98132.06;5044389;28;20110;-73
2021/12/29 08:10:52;;;;;;;6.55;1.63;;;;;;;7.29;100.00;98140.19;5046830;28;20037;-74
2021/12/29 08:13:18;;;;;;;7.07;1.42;;;;;;;7.07;100.00;98105.28;5026253;28;20024;-73
2021/12/29 08:15:44;;;;;;;4.03;0.82;;;;;;;7.34;100.00;98152.03;5042654;28;20397;-73
2021/12/29 08:18:10;;;;;;;7.63;1.00;;;;;;;7.21;100.00;98133.94;5052353;28;20107;-73
2021/12/29 08:20:35;;;;;;;9.30;0.90;;;;;;;7.27;100.00;98139.56;5055423;28;20112;-74
2021/12/29 08:23:02;;;;;;;4.53;0.85;;;;;;;7.24;100.00;98140.78;5044477;28;20104;-72
2021/12/29 08:25:28;;;;;;;7.57;1.23;;;;;;;7.44;100.00;98163.25;5038769;28;20021;-69
2021/12/29 08:27:53;;;;;;;4.47;0.98;;;;;;;7.43;100.00;98172.34;5057989;28;20081;-73
2021/12/29 08:30:19;;;;;;;4.07;1.05;;;;;;;7.31;100.00;98143.50;5043959;28;20021;-74
2021/12/29 08:32:45;;;;;;;9.50;1.52;;;;;;;7.33;100.00;98144.13;5041450;28;20111;-73
2021/12/29 08:35:11;;;;;;;4.28;0.85;;;;;;;7.57;100.00;98158.94;5051014;28;20036;-73
2021/12/29 08:37:37;;;;;;;6.57;0.90;;;;;;;7.62;100.00;98153.78;5032523;28;20029;-72
2021/12/29 08:40:07;;;;;;;5.55;1.50;;;;;;;7.76;100.00;98168.16;5032679;28;20028;-75
2021/12/29 08:42:32;;;;;;;5.03;0.90;;;;;;;7.80;100.00;98172.09;5042124;28;20027;-73
2021/12/29 08:44:58;;;;;;;4.38;0.80;;;;;;;7.88;100.00;98135.03;5055350;28;20040;-73
2021/12/29 08:47:23;;;;;;;3.58;0.75;;;;;;;7.91;100.00;98136.50;5051189;28;20110;-74
2021/12/29 08:49:48;;;;;;;2.45;0.80;;;;;;;8.02;100.00;98127.84;5032250;28;20029;-73
2021/12/29 08:52:13;;;;;;;3.67;0.55;;;;;;;8.11;100.00;98147.34;5048193;28;20036;-73
2021/12/29 08:54:39;;;;;;;4.03;0.68;;;;;;;8.19;100.00;98149.03;5043095;28;20024;-72
2021/12/29 08:57:06;;;;;;;2.10;0.32;;;;;;;8.16;100.00;98165.59;5044251;28;20102;-73
2021/12/29 08:59:31;;;;;;;2.40;1.02;;;;;;;7.96;100.00;98160.97;5053055;28;20036;-73
2021/12/29 09:01:57;;;;;;;5.20;0.70;;;;;;;8.14;100.00;98173.88;5056818;28;20458;-71
2021/12/29 09:04:22;;;;;;;4.43;0.82;;;;;;;8.00;100.00;98148.75;5032692;28;20024;-72
2021/12/29 09:06:47;;;;;;;4.63;0.40;;;;;;;8.44;100.00;98169.00;5032857;28;20021;-72
2021/12/29 09:09:13;;;;;;;5.20;0.70;;;;;;;8.36;100.00;98147.59;5050694;28;20542;-72
2021/12/29 09:11:39;;;;;;;2.47;0.65;;;;;;;8.52;100.00;98167.97;5032891;28;20032;-74
2021/12/29 09:14:05;;;;;;;3.88;0.70;;;;;;;8.65;100.00;98168.00;5036305;28;20017;-74
2021/12/29 09:16:30;;;;;;;4.95;0.80;;;;;;;8.66;100.00;98149.94;5045892;28;20099;-74
2021/12/29 09:18:55;;;;;;;2.75;0.77;;;;;;;8.79;99.96;98174.22;5054052;28;20502;-67
2021/12/29 09:21:21;;;;;;;7.07;0.85;;;;;;;8.57;100.00;98181.69;5047604;28;20074;-66
2021/12/29 09:23:47;;;;;;;5.45;0.80;;;;;;;8.39;100.00;98165.25;5050876;28;20025;-72
2021/12/29 09:26:14;;;;;;;5.50;1.40;;;;;;;8.61;100.00;98191.00;5031647;28;20031;-73
2021/12/29 09:28:42;;;;;;;4.00;0.82;;;;;;;8.44;100.00;98173.56;5034623;28;20048;-73
2021/12/29 09:31:07;;;;;;;2.63;0.77;;;;;;;8.19;100.00;98171.41;5046313;28;20029;-74
2021/12/29 09:33:33;;;;;;;5.40;1.00;;;;;;;8.64;100.00;98195.97;5048424;28;20094;-67
2021/12/29 09:36:02;;;;;;;5.35;0.80;;;;;;;8.56;100.00;98207.78;5053562;28;20021;-67
2021/12/29 09:38:29;;;;;;;4.60;1.17;;;;;;;8.58;100.00;98204.91;5059127;28;20032;-68
2021/12/29 09:40:54;;;;;;;4.90;0.90;;;;;;;8.75;99.49;98213.41;5047066;28;20040;-68
2021/12/29 09:43:20;;;;;;;4.60;0.70;;;;;;;8.77;98.99;98212.16;5053987;28;20025;-70
2021/12/29 09:45:47;;;;;;;5.32;1.23;;;;;;;8.88;99.10;98197.25;5053874;28;20121;-71
2021/12/29 09:48:14;;;;;;;12.98;1.58;;;;;;;9.02;97.53;98208.88;5058778;28;20033;-70
2021/12/29 09:50:40;;;;;;;4.03;1.00;;;;;;;8.96;97.59;98205.13;5054228;28;20071;-69
2021/12/29 09:53:07;;;;;;;4.03;0.85;;;;;;;8.92;97.52;98209.28;5058544;28;20501;-66
2021/12/29 09:55:33;;;;;;;2.83;0.63;;;;;;;9.06;96.72;98206.56;5059231;28;20025;-69
2021/12/29 09:58:00;;;;;;;6.45;0.60;;;;;;;8.74;97.73;98212.56;5046981;28;20071;-71
2021/12/29 10:00:32;;;;;;;5.10;0.75;;;;;;;8.78;97.63;98229.19;5047984;28;20024;-70
2021/12/29 10:03:00;;;;;;;5.95;0.93;;;;;;;8.66;98.01;98202.00;5051044;28;20075;-72
2021/12/29 10:05:27;;;;;;;9.00;1.85;;;;;;;9.13;96.69;98232.53;5065455;28;20020;-68
2021/12/29 10:08:00;;;;;;;2.55;0.70;;;;;;;9.23;94.77;98225.88;5058100;28;20516;-67
2021/12/29 10:10:26;;;;;;;2.40;0.77;;;;;;;9.32;94.69;98225.44;5054837;28;20390;-67
2021/12/29 10:12:51;;;;;;;3.50;0.80;;;;;;;9.39;94.28;98226.28;5053317;28;20090;-67
2021/12/29 10:15:17;;;;;;;4.32;1.42;;;;;;;9.33;93.93;98223.59;5060858;28;20439;-67
2021/12/29 10:17:42;;;;;;;4.75;1.38;;;;;;;9.22;94.36;98203.44;5046277;28;20033;-68
2021/12/29 10:20:15;;;;;;;6.50;1.42;;;;;;;9.44;92.85;98220.25;5038703;28;20113;-68
2021/12/29 10:22:41;;;;;;;7.13;1.30;;;;;;;9.75;90.66;98214.16;5040880;28;20034;-68
2021/12/29 10:25:13;;;;;;;3.97;1.00;;;;;;;9.85;90.44;98216.38;5040223;28;20037;-67
2021/12/29 10:27:39;;;;;;;20.98;2.70;;;;;;;9.98;88.80;98197.44;5030301;28;20525;-67
2021/12/29 10:30:18;;;;;;;6.90;1.48;;;;;;;10.04;88.86;98199.28;5050560;28;20017;-67
2021/12/29 10:32:44;;;;;;;4.90;1.70;;;;;;;10.10;89.40;98200.28;5058948;28;20036;-67
2021/12/29 10:35:23;;;;;;;4.45;1.20;;;;;;;9.79;90.15;98199.16;5058154;28;20428;-67
2021/12/29 10:37:50;;;;;;;8.20;0.98;;;;;;;9.76;90.26;98194.19;5054330;28;20051;-68
2021/12/29 10:40:42;;;;;;;6.30;1.67;;;;;;;9.81;90.49;98198.97;5059117;28;20063;-68
2021/12/29 10:43:07;;;;;;;7.47;1.75;;;;;;;9.62;90.90;98187.19;5045236;28;20032;-68
2021/12/29 10:45:46;;;;;;;4.40;1.30;;;;;;;9.82;90.40;98193.34;5061010;28;20070;-68
2021/12/29 10:48:24;;;;;;;5.90;2.40;;;;;;;9.87;90.09;98196.22;5056876;28;20025;-67
2021/12/29 10:50:57;;;;;;;10.82;3.95;;;;;;;9.92;89.59;98200.16;5043455;28;20021;-67
2021/12/29 10:53:23;;;;;;;7.93;2.28;;;;;;;9.54;90.89;98180.13;5062000;28;20466;-68
2021/12/29 10:55:49;;;;;;;7.25;2.83;;;;;;;9.69;90.67;98187.97;5055954;28;20042;-69
2021/12/29 10:58:19;;;;;;;12.18;3.10;;;;;;;9.96;89.88;98196.00;5045862;28;20029;-68
2021/12/29 11:01:08;;;;;;;6.53;1.55;;;;;;;10.09;89.27;98194.06;5041596;28;20072;-68
2021/12/29 11:03:35;;;;;;;5.47;1.03;;;;;;;10.19;87.84;98187.34;5046456;28;20027;-68
2021/12/29 11:06:04;;;;;;;7.28;2.40;;;;;;;9.95;89.64;98208.66;5056526;28;20186;-67
2021/12/29 11:08:33;;;;;;;10.38;3.00;;;;;;;10.17;89.04;98195.69;5033533;28;20450;-68
2021/12/29 11:11:05;;;;;;;14.70;2.88;;;;;;;10.36;88.77;98193.94;5036847;28;20932;-67
2021/12/29 11:13:32;;;;;;;10.05;1.92;;;;;;;10.61;86.53;98201.28;5049586;28;20481;-68
2021/12/29 11:15:59;;;;;;;4.43;0.85;;;;;;;10.74;85.71;98199.31;5069396;28;20039;-68
2021/12/29 11:18:25;;;;;;;3.65;1.27;;;;;;;10.87;85.43;98167.78;5049246;28;20053;-68
2021/12/29 11:20:56;;;;;;;6.38;1.58;;;;;;;11.11;83.34;98185.09;5047195;28;20036;-68
2021/12/29 11:23:22;;;;;;;5.38;1.30;;;;;;;11.07;82.52;98178.44;5055170;28;20032;-68
2021/12/29 11:25:50;;;;;;;6.35;1.75;;;;;;;11.03;84.09;98174.50;5050980;28;20375;-68
2021/12/29 11:28:34;;;;;;;4.95;1.00;;;;;;;10.41;84.34;98133.81;5043990;28;20041;-68
2021/12/29 11:31:04;;;;;;;4.43;1.20;;;;;;;10.44;85.90;98173.94;5053267;28;20389;-67
2021/12/29 11:33:31;;;;;;;4.15;1.05;;;;;;;10.03;88.90;98176.00;5055753;28;20133;-68
2021/12/29 11:35:56;;;;;;;4.95;1.30;;;;;;;10.12;89.75;98176.59;5049098;28;20029;-68
2021/12/29 11:38:23;;;;;;;4.50;1.27;;;;;;;9.88;89.62;98180.84;5049636;28;20090;-68
2021/12/29 11:40:52;;;;;;;8.13;1.75;;;;;;;9.78;91.20;98181.31;5053951;28;20122;-68
2021/12/29 11:43:19;;;;;;;5.68;1.15;;;;;;;9.63;91.73;98180.72;5026626;28;20124;-67